Time;durP1;ratioP1;P1;durP2;ratioP2;P2;SDS_P1;SDS_P2;PMS_P1;PMS_P2;Temp;Humidity;BMP_temperature;BMP_pressure;BME280_temperature;BME280_humidity;BME280_pressure;Samples;Min_cycle;Max_cycle;Signal;HPM_P1;HPM_P2
2020/12/27 00:01:15;;;;;;;30.57;16.43;;;;;;;-2.34;82.53;100424.52;120586;1150;104475;-79
2020/12/27 00:03:42;;;;;;;32.40;18.60;;;;;;;-2.37;82.78;100432.11;120570;1148;104473;-78
2020/12/27 00:06:09;;;;;;;30.15;17.05;;;;;;;-2.38;82.10;100415.06;120609;1148;104394;-78
2020/12/27 00:08:37;;;;;;;30.93;17.90;;;;;;;-2.38;82.88;100417.62;120552;1148;104343;-78
2020/12/27 00:11:04;;;;;;;31.23;18.27;;;;;;;-2.41;82.93;100423.52;120525;1150;104346;-79
2020/12/27 00:13:31;;;;;;;32.20;19.10;;;;;;;-2.42;82.67;100410.72;120557;1148;104604;-79
2020/12/27 00:15:58;;;;;;;34.10;19.43;;;;;;;-2.43;83.05;100412.41;120528;1148;104310;-79
2020/12/27 00:18:26;;;;;;;35.43;19.27;;;;;;;-2.44;82.68;100414.10;120514;1148;106408;-78
2020/12/27 00:20:53;;;;;;;35.77;18.90;;;;;;;-2.44;82.88;100418.35;120607;1148;104407;-78
2020/12/27 00:23:20;;;;;;;37.47;19.40;;;;;;;-2.46;82.01;100415.77;120703;1150;104453;-78
2020/12/27 00:25:48;;;;;;;36.17;19.20;;;;;;;-2.47;82.41;100424.25;120539;1148;104407;-78
2020/12/27 00:28:15;;;;;;;38.47;19.97;;;;;;;-2.48;82.40;100417.42;120579;1148;104150;-78
2020/12/27 00:30:42;;;;;;;37.40;18.67;;;;;;;-2.51;82.25;100412.25;120612;1148;104850;-78
2020/12/27 00:33:09;;;;;;;33.40;18.03;;;;;;;-2.51;82.57;100417.36;120549;1150;104385;-78
2020/12/27 00:35:37;;;;;;;35.07;18.70;;;;;;;-2.51;82.47;100416.50;120576;1151;104532;-79
2020/12/27 00:38:04;;;;;;;35.50;17.60;;;;;;;-2.50;82.40;100411.42;120619;1148;104443;-79
2020/12/27 00:40:31;;;;;;;31.67;16.87;;;;;;;-2.49;82.67;100405.48;120604;1148;104444;-78
2020/12/27 00:42:59;;;;;;;30.77;16.65;;;;;;;-2.46;82.64;100407.24;120532;1149;104325;-79
2020/12/27 00:45:26;;;;;;;32.63;16.33;;;;;;;-2.42;82.66;100406.48;120503;1150;104300;-78
2020/12/27 00:47:53;;;;;;;29.00;16.05;;;;;;;-2.40;81.93;100401.40;120557;1148;104351;-78
2020/12/27 00:50:21;;;;;;;32.33;15.83;;;;;;;-2.38;81.87;100405.70;120570;1148;104346;-78
2020/12/27 00:52:48;;;;;;;25.77;14.77;;;;;;;-2.36;81.75;100398.08;120642;1148;104337;-79
2020/12/27 00:55:16;;;;;;;27.50;15.50;;;;;;;-2.37;82.15;100404.88;120608;1147;104400;-79
2020/12/27 00:57:43;;;;;;;31.47;15.43;;;;;;;-2.38;82.34;100404.84;120551;1148;102681;-79
2020/12/27 01:00:11;;;;;;;29.63;15.97;;;;;;;-2.39;82.46;100418.45;120521;1148;104390;-78
2020/12/27 01:02:41;;;;;;;29.47;15.33;;;;;;;-2.41;81.75;100409.89;120517;1148;104415;-78
2020/12/27 01:05:32;;;;;;;32.20;15.07;;;;;;;-2.42;82.43;100424.35;120469;1148;104391;-79
2020/12/27 01:08:00;;;;;;;29.47;15.80;;;;;;;-2.42;81.80;100408.16;120579;1148;104465;-78
2020/12/27 01:10:28;;;;;;;32.67;16.03;;;;;;;-2.41;82.35;100399.67;120524;1148;104316;-78
2020/12/27 01:12:55;;;;;;;28.23;15.30;;;;;;;-2.41;82.21;100397.98;120533;1148;104342;-78
2020/12/27 01:15:22;;;;;;;28.77;15.77;;;;;;;-2.41;81.77;100389.45;120636;1148;104425;-79
2020/12/27 01:18:04;;;;;;;27.30;14.40;;;;;;;-2.44;82.17;100388.56;120627;1148;104316;-78
2020/12/27 01:20:33;;;;;;;28.10;15.00;;;;;;;-2.45;82.08;100370.66;120643;1148;104321;-79
2020/12/27 01:23:02;;;;;;;24.83;13.80;;;;;;;-2.47;81.57;100368.07;120702;1147;104430;-78
2020/12/27 01:25:33;;;;;;;24.10;14.20;;;;;;;-2.48;82.00;100370.59;120582;1148;104150;-79
2020/12/27 01:28:01;;;;;;;26.97;13.53;;;;;;;-2.48;81.90;100368.04;120626;1148;104408;-79
2020/12/27 01:30:28;;;;;;;27.83;14.47;;;;;;;-2.50;81.55;100370.56;120630;1148;104431;-78
2020/12/27 01:32:59;;;;;;;26.03;13.20;;;;;;;-2.49;81.88;100361.21;120607;1150;104458;-78
2020/12/27 01:35:35;;;;;;;22.87;12.98;;;;;;;-2.51;81.12;100348.41;120609;1148;104409;-78
2020/12/27 01:38:04;;;;;;;24.30;13.27;;;;;;;-2.51;81.87;100357.77;120591;1148;104426;-79
2020/12/27 01:40:31;;;;;;;25.17;13.13;;;;;;;-2.51;81.71;100350.10;120587;1148;104391;-79
2020/12/27 01:42:59;;;;;;;25.00;13.27;;;;;;;-2.52;81.32;100356.00;120636;1148;104294;-79
2020/12/27 01:45:27;;;;;;;25.67;13.03;;;;;;;-2.53;81.73;100357.70;120700;1148;104297;-78
2020/12/27 01:48:12;;;;;;;21.77;12.60;;;;;;;-2.52;81.67;100361.98;120674;1148;104355;-78
2020/12/27 01:50:40;;;;;;;25.93;12.67;;;;;;;-2.51;80.93;100340.75;120590;1150;104397;-79
2020/12/27 01:53:12;;;;;;;20.37;12.17;;;;;;;-2.51;81.53;100338.20;120618;1148;104399;-78
2020/12/27 01:55:40;;;;;;;23.93;12.50;;;;;;;-2.49;81.35;100349.30;120581;1148;104305;-79
2020/12/27 01:58:15;;;;;;;25.00;12.73;;;;;;;-2.52;81.18;100333.02;120559;1148;104367;-79
2020/12/27 02:00:48;;;;;;;23.03;12.33;;;;;;;-2.51;81.27;100342.44;120577;1148;104533;-79
2020/12/27 02:03:26;;;;;;;21.53;12.23;;;;;;;-2.53;81.20;100337.27;120494;1148;104445;-79
2020/12/27 02:05:57;;;;;;;25.75;13.05;;;;;;;-2.54;80.50;100332.99;120570;1148;104384;-79
2020/12/27 02:08:25;;;;;;;25.90;12.90;;;;;;;-2.54;81.12;100335.55;120529;1148;104433;-78
2020/12/27 02:10:58;;;;;;;24.63;12.77;;;;;;;-2.57;81.12;100312.50;120561;1148;101852;-78
2020/12/27 02:13:26;;;;;;;25.00;13.57;;;;;;;-2.61;81.14;100313.27;120606;1148;104336;-79
2020/12/27 02:15:54;;;;;;;25.93;13.07;;;;;;;-2.62;81.11;100316.66;120464;1148;104848;-79
2020/12/27 02:18:50;;;;;;;25.30;13.03;;;;;;;-2.64;81.14;100310.66;120554;1148;104304;-79
2020/12/27 02:21:18;;;;;;;27.07;13.03;;;;;;;-2.64;80.97;100323.42;120586;1148;104507;-78
2020/12/27 02:23:46;;;;;;;27.13;13.20;;;;;;;-2.67;80.92;100313.15;120657;1148;104316;-79
2020/12/27 02:26:20;;;;;;;22.25;13.10;;;;;;;-2.70;80.75;100314.75;120667;1147;104396;-78
2020/12/27 02:28:54;;;;;;;28.27;12.80;;;;;;;-2.70;80.54;100322.41;120634;1150;104370;-79
2020/12/27 02:31:25;;;;;;;26.07;13.83;;;;;;;-2.71;80.11;100321.55;120694;1148;104377;-79
2020/12/27 02:33:57;;;;;;;;;;;;;;;-2.72;80.76;100306.20;120629;1148;104294;-78
2020/12/27 02:36:25;;;;;;;27.40;14.10;;;;;;;-2.72;80.56;100314.72;120619;1148;104368;-80
2020/12/27 02:38:53;;;;;;;24.93;13.60;;;;;;;-2.73;80.81;100302.78;120618;1148;104354;-79
2020/12/27 02:41:25;;;;;;;28.07;14.17;;;;;;;-2.75;81.18;100294.23;120581;1148;104461;-79
2020/12/27 02:44:02;;;;;;;26.67;13.90;;;;;;;-2.75;80.39;100289.13;120562;1148;104295;-78
2020/12/27 02:46:31;;;;;;;25.10;13.87;;;;;;;-2.78;80.78;100283.95;120503;1148;104323;-79
2020/12/27 02:49:17;;;;;;;26.47;13.67;;;;;;;-2.80;80.92;100280.52;120577;1148;104404;-79
2020/12/27 02:51:45;;;;;;;28.57;14.57;;;;;;;-2.82;80.75;100282.17;120608;1148;104815;-79
2020/12/27 02:54:14;;;;;;;28.03;13.80;;;;;;;-2.85;80.09;100272.77;120625;1148;104456;-78
2020/12/27 02:56:41;;;;;;;26.40;14.27;;;;;;;-2.87;80.47;100268.42;120635;1148;104404;-78
2020/12/27 02:59:08;;;;;;;26.82;14.55;;;;;;;-2.89;80.62;100259.88;120531;1148;104345;-79
2020/12/27 03:01:36;;;;;;;33.13;16.10;;;;;;;-2.91;80.49;100256.44;120616;1148;104297;-79
2020/12/27 03:04:11;;;;;;;34.03;15.20;;;;;;;-2.94;80.74;100261.47;120559;1148;104402;-79
2020/12/27 03:06:40;;;;;;;30.73;15.73;;;;;;;-2.98;81.45;100255.45;120581;1148;104415;-78
2020/12/27 03:09:20;;;;;;;31.87;15.40;;;;;;;-3.01;80.56;100257.94;120652;1148;104341;-79
2020/12/27 03:12:06;;;;;;;32.83;15.07;;;;;;;-3.02;81.20;100253.66;120633;1148;104383;-79
2020/12/27 03:14:34;;;;;;;28.50;14.80;;;;;;;-3.01;80.67;100265.59;120634;1148;104312;-79
2020/12/27 03:17:24;;;;;;;30.53;15.17;;;;;;;-3.01;81.28;100254.52;120491;1148;104386;-79
2020/12/27 03:20:16;;;;;;;29.87;15.13;;;;;;;-3.03;80.94;100256.18;120533;1148;104447;-78
2020/12/27 03:22:58;;;;;;;28.27;14.30;;;;;;;-3.05;81.06;100266.36;120579;1148;104451;-78
2020/12/27 03:25:34;;;;;;;28.98;14.33;;;;;;;-3.07;81.03;100273.94;120531;1148;104418;-78
2020/12/27 03:28:02;;;;;;;26.60;14.00;;;;;;;-3.09;81.67;100267.09;120577;1148;104325;-78
2020/12/27 03:30:29;;;;;;;28.25;14.35;;;;;;;-3.10;81.42;100271.33;120527;1148;104503;-78
2020/12/27 03:33:01;;;;;;;26.57;13.73;;;;;;;-3.10;80.43;100270.47;120526;1148;104201;-78
2020/12/27 03:35:32;;;;;;;26.43;13.87;;;;;;;-3.12;80.28;100267.02;120567;1148;104496;-78
2020/12/27 03:38:02;;;;;;;31.80;15.33;;;;;;;-3.14;80.84;100264.44;120497;1148;104485;-78
2020/12/27 03:40:43;;;;;;;27.67;13.77;;;;;;;-3.15;80.26;100269.51;120542;1148;102589;-78
2020/12/27 03:43:23;;;;;;;27.60;13.90;;;;;;;-3.17;81.10;100272.02;120535;1148;104610;-79
2020/12/27 03:45:51;;;;;;;24.55;13.50;;;;;;;-3.18;80.70;100262.66;120627;1148;104416;-78
2020/12/27 03:48:49;;;;;;;28.07;14.33;;;;;;;-3.18;81.27;100264.34;120648;1148;104471;-79
2020/12/27 03:51:48;;;;;;;26.67;13.57;;;;;;;-3.20;80.65;100268.55;120522;1148;104323;-80
2020/12/27 03:54:24;;;;;;;25.30;13.33;;;;;;;-3.21;80.43;100249.83;120551;1149;104371;-78
2020/12/27 03:57:11;;;;;;;25.83;13.87;;;;;;;-3.20;80.66;100264.31;120520;1148;104407;-79
2020/12/27 04:00:03;;;;;;;28.43;14.03;;;;;;;-3.21;80.77;100262.59;120512;1148;104442;-79
2020/12/27 04:02:43;;;;;;;27.40;14.17;;;;;;;-3.23;80.62;100246.39;120561;1148;105000;-78
2020/12/27 04:05:10;;;;;;;27.93;13.80;;;;;;;-3.24;79.84;100244.63;120568;1148;104473;-79
2020/12/27 04:07:37;;;;;;;28.90;14.33;;;;;;;-3.26;80.42;100247.98;120526;1148;102781;-79
2020/12/27 04:10:14;;;;;;;26.60;13.77;;;;;;;-3.26;80.33;100255.62;120576;1148;102793;-79
2020/12/27 04:12:42;;;;;;;27.87;12.87;;;;;;;-3.25;80.67;100250.56;120493;1148;104466;-79
2020/12/27 04:15:10;;;;;;;26.17;13.30;;;;;;;-3.22;79.81;100249.80;120568;1148;101940;-79
2020/12/27 04:17:48;;;;;;;26.73;13.13;;;;;;;-3.21;80.35;100241.31;120488;1148;104429;-79
2020/12/27 04:20:17;;;;;;;24.40;13.43;;;;;;;-3.20;79.95;100238.80;120623;1148;102567;-79
2020/12/27 04:22:49;;;;;;;27.57;13.13;;;;;;;-3.19;79.49;100252.41;120545;1148;104381;-79
2020/12/27 04:25:18;;;;;;;30.50;13.93;;;;;;;-3.19;79.47;100239.66;120510;1148;104275;-78
2020/12/27 04:27:46;;;;;;;27.27;13.80;;;;;;;-3.18;79.07;100228.62;120618;1148;104793;-78
2020/12/27 04:30:15;;;;;;;29.37;13.43;;;;;;;-3.19;79.38;100217.56;120593;1148;104397;-79
2020/12/27 04:32:56;;;;;;;30.33;14.00;;;;;;;-3.18;79.15;100208.22;120546;1148;104339;-79
2020/12/27 04:35:26;;;;;;;26.83;13.37;;;;;;;-3.19;78.97;100204.81;120523;1148;104474;-78
2020/12/27 04:37:55;;;;;;;26.57;13.93;;;;;;;-3.19;78.63;100211.60;120590;1148;104198;-79
2020/12/27 04:40:34;;;;;;;29.10;14.73;;;;;;;-3.19;79.77;100198.84;120564;1150;104302;-79
2020/12/27 04:43:03;;;;;;;28.47;15.00;;;;;;;-3.20;78.89;100203.09;120596;1148;104304;-79
2020/12/27 04:45:44;;;;;;;24.30;14.40;;;;;;;-3.20;79.20;100197.13;120562;1150;104378;-79
2020/12/27 04:48:32;;;;;;;27.53;13.87;;;;;;;-3.21;79.04;100201.37;120533;1148;104423;-79
2020/12/27 04:51:25;;;;;;;30.30;13.87;;;;;;;-3.22;79.16;100199.64;120500;1148;104433;-79
2020/12/27 04:54:07;;;;;;;27.83;13.73;;;;;;;-3.22;79.04;100199.64;120558;1148;103547;-78
2020/12/27 04:56:46;;;;;;;28.33;13.73;;;;;;;-3.22;79.29;100201.34;120524;1148;104474;-78
2020/12/27 04:59:19;;;;;;;26.63;13.20;;;;;;;-3.23;78.73;100203.03;120635;1148;104310;-78
2020/12/27 05:01:53;;;;;;;27.53;13.43;;;;;;;-3.25;79.22;100204.66;120547;1148;104935;-78
2020/12/27 05:04:26;;;;;;;25.17;13.10;;;;;;;-3.27;79.03;100201.20;120557;1148;102301;-78
2020/12/27 05:07:18;;;;;;;30.87;14.63;;;;;;;-3.28;78.51;100186.73;120530;1148;104401;-78
2020/12/27 05:10:04;;;;;;;32.47;14.57;;;;;;;-3.30;79.62;100193.49;120521;1148;104364;-78
2020/12/27 05:12:36;;;;;;;29.43;14.87;;;;;;;-3.31;78.68;100189.22;120510;1148;104336;-78
2020/12/27 05:15:06;;;;;;;28.55;14.60;;;;;;;-3.35;78.59;100212.94;120571;1148;104407;-79
2020/12/27 05:17:35;;;;;;;31.43;15.87;;;;;;;-3.38;78.86;100221.38;120514;1148;105482;-79
2020/12/27 05:20:13;;;;;;;33.20;16.30;;;;;;;-3.39;79.22;100206.05;120549;1148;104368;-79
2020/12/27 05:22:41;;;;;;;31.93;16.70;;;;;;;-3.41;79.01;100218.77;120563;1148;104335;-79
2020/12/27 05:25:15;;;;;;;31.27;17.03;;;;;;;-3.43;79.47;100216.98;120559;1148;104316;-79
2020/12/27 05:28:07;;;;;;;33.73;17.30;;;;;;;-3.44;78.84;100207.61;120594;1148;104394;-79
2020/12/27 05:31:15;;;;;;;33.50;17.00;;;;;;;-3.48;78.88;100216.02;120462;1148;105947;-78
2020/12/27 05:34:09;;;;;;;35.73;17.17;;;;;;;-3.51;78.98;100216.81;120561;1148;104328;-79
2020/12/27 05:37:05;;;;;;;32.40;16.20;;;;;;;-3.52;78.97;100206.58;120514;1148;104412;-78
2020/12/27 05:39:59;;;;;;;37.20;16.80;;;;;;;-3.53;79.43;100192.97;120475;1148;104358;-78
2020/12/27 05:42:47;;;;;;;36.33;16.57;;;;;;;-3.51;79.45;100191.31;120509;1148;104409;-79
2020/12/27 05:45:19;;;;;;;33.40;16.50;;;;;;;-3.49;79.48;100199.86;120567;1147;104402;-78
2020/12/27 05:47:48;;;;;;;30.97;17.10;;;;;;;-3.46;78.97;100210.13;120623;1148;104454;-79
2020/12/27 05:50:18;;;;;;;34.60;16.43;;;;;;;-3.44;78.86;100199.95;120597;1148;104367;-78
2020/12/27 05:52:58;;;;;;;31.57;16.93;;;;;;;-3.43;78.67;100194.03;120638;1148;105644;-78
2020/12/27 05:55:33;;;;;;;33.43;16.40;;;;;;;-3.43;78.67;100194.03;120563;1148;104434;-79
2020/12/27 05:58:00;;;;;;;34.00;17.30;;;;;;;-3.43;78.67;100188.93;120527;1148;104435;-78
2020/12/27 06:00:30;;;;;;;30.30;15.80;;;;;;;-3.44;79.01;100182.97;120568;1148;104404;-79
2020/12/27 06:03:03;;;;;;;32.93;17.00;;;;;;;-3.44;78.78;100171.91;120537;1148;104339;-79
2020/12/27 06:06:01;;;;;;;33.65;17.30;;;;;;;-3.44;78.54;100172.77;120560;1147;104400;-79
2020/12/27 06:08:31;;;;;;;31.40;16.80;;;;;;;-3.44;78.55;100170.22;120593;1150;104402;-79
2020/12/27 06:11:05;;;;;;;32.03;17.10;;;;;;;-3.45;78.63;100170.19;120583;1148;104310;-78
2020/12/27 06:13:43;;;;;;;33.40;17.00;;;;;;;-3.46;79.25;100166.78;120561;1150;104599;-78
2020/12/27 06:16:45;;;;;;;39.50;17.00;;;;;;;-3.46;78.79;100176.12;120575;1148;104305;-79
2020/12/27 06:19:55;;;;;;;37.07;17.67;;;;;;;-3.49;78.62;100169.27;120620;1148;104450;-79
2020/12/27 06:22:27;;;;;;;41.80;18.73;;;;;;;-3.49;78.85;100171.81;120649;1148;104304;-79
2020/12/27 06:25:10;;;;;;;33.88;16.42;;;;;;;-3.49;79.00;100183.70;120598;1148;104508;-78
2020/12/27 06:27:39;;;;;;;34.80;17.60;;;;;;;-3.49;78.10;100178.60;120567;1151;104332;-78
2020/12/27 06:30:15;;;;;;;35.97;18.00;;;;;;;-3.48;78.97;100177.77;120552;1148;104407;-79
2020/12/27 06:32:58;;;;;;;34.98;17.57;;;;;;;-3.48;78.45;100182.87;120612;1148;104496;-79
2020/12/27 06:35:34;;;;;;;34.90;17.30;;;;;;;-3.46;78.08;100183.77;120563;1150;104343;-79
2020/12/27 06:38:16;;;;;;;34.33;17.03;;;;;;;-3.46;77.80;100183.77;120551;1148;104178;-78
2020/12/27 06:41:03;;;;;;;33.53;17.30;;;;;;;-3.45;78.44;100180.39;120538;1148;104462;-79
2020/12/27 06:44:06;;;;;;;33.93;17.33;;;;;;;-3.46;77.96;100168.47;120396;1151;104525;-79
2020/12/27 06:46:47;;;;;;;32.67;17.70;;;;;;;-3.44;78.34;100171.91;120540;1148;104429;-78
2020/12/27 06:49:31;;;;;;;36.83;18.83;;;;;;;-3.43;78.09;100169.39;120548;1148;104448;-79
2020/12/27 06:52:19;;;;;;;34.00;17.95;;;;;;;-3.40;77.52;100173.73;120515;1148;104329;-78
2020/12/27 06:55:35;;;;;;;34.27;17.87;;;;;;;-3.36;77.50;100184.03;120585;1147;103556;-78
2020/12/27 06:58:27;;;;;;;34.87;18.00;;;;;;;-3.32;77.58;100182.40;120580;1148;104313;-78
2020/12/27 07:01:17;;;;;;;36.27;18.37;;;;;;;-3.26;77.00;100172.33;120498;1148;104447;-78
2020/12/27 07:03:45;;;;;;;37.40;19.47;;;;;;;-3.18;77.26;100160.62;120537;1148;104320;-78
2020/12/27 07:06:19;;;;;;;36.53;18.80;;;;;;;-3.11;77.61;100149.70;120478;1148;104252;-78
2020/12/27 07:09:01;;;;;;;37.10;19.12;;;;;;;-3.01;77.44;100157.56;120500;1147;104391;-78
2020/12/27 07:11:33;;;;;;;33.10;18.60;;;;;;;-2.91;76.87;100162.87;120555;1148;104409;-78
2020/12/27 07:14:03;;;;;;;36.53;18.20;;;;;;;-2.82;76.43;100165.63;120674;1148;104390;-79
2020/12/27 07:16:36;;;;;;;36.37;18.77;;;;;;;-2.75;75.88;100159.80;120671;1148;104425;-80
2020/12/27 07:19:04;;;;;;;36.23;19.33;;;;;;;-2.67;76.20;100159.11;120588;1148;104447;-78
2020/12/27 07:21:36;;;;;;;35.83;19.77;;;;;;;-2.59;75.46;100143.09;120686;1148;104433;-78
2020/12/27 07:24:09;;;;;;;35.77;18.50;;;;;;;-2.48;74.76;100156.94;120525;1148;104362;-78
2020/12/27 07:26:42;;;;;;;34.50;18.73;;;;;;;-2.39;74.49;100152.82;120598;1148;102492;-77
2020/12/27 07:29:22;;;;;;;34.50;18.40;;;;;;;-2.28;74.25;100136.87;120573;1148;104409;-78
2020/12/27 07:31:52;;;;;;;34.20;17.77;;;;;;;-2.15;74.37;100148.17;120565;1148;104258;-78
2020/12/27 07:34:26;;;;;;;34.60;19.03;;;;;;;-2.07;73.21;100161.06;120628;1149;104413;-78
2020/12/27 07:37:02;;;;;;;35.27;18.63;;;;;;;-2.00;73.53;100130.52;120572;1149;104450;-78
2020/12/27 07:39:48;;;;;;;32.67;19.27;;;;;;;-1.93;72.96;100146.83;120583;1148;104368;-78
2020/12/27 07:42:35;;;;;;;32.97;18.50;;;;;;;-1.87;72.51;100137.55;120590;1148;104343;-78
2020/12/27 07:45:12;;;;;;;31.40;17.70;;;;;;;-1.80;72.31;100166.63;120527;1148;104446;-77
2020/12/27 07:47:40;;;;;;;32.48;17.62;;;;;;;-1.73;72.86;100131.81;120577;1148;104353;-78
2020/12/27 07:50:15;;;;;;;36.00;18.97;;;;;;;-1.66;71.84;100152.37;120516;1147;104924;-78
2020/12/27 07:52:57;;;;;;;28.47;17.17;;;;;;;-1.59;71.62;100153.34;120570;1147;104439;-78
2020/12/27 07:55:39;;;;;;;27.40;16.57;;;;;;;-1.45;71.96;100146.71;120552;1148;104407;-77
2020/12/27 07:58:07;;;;;;;30.47;17.13;;;;;;;-1.31;71.98;100147.78;120607;1149;104332;-78
2020/12/27 08:00:38;;;;;;;30.60;17.63;;;;;;;-1.16;71.72;100130.92;120613;1148;104484;-78
2020/12/27 08:03:07;;;;;;;28.83;16.77;;;;;;;-0.98;70.52;100139.69;120671;1148;104339;-78
2020/12/27 08:05:39;;;;;;;30.60;17.90;;;;;;;-0.81;70.33;100126.24;120654;1148;104307;-78
2020/12/27 08:08:11;;;;;;;28.23;16.40;;;;;;;-0.69;70.26;100124.69;120647;1148;104774;-78
2020/12/27 08:10:39;;;;;;;30.60;17.53;;;;;;;-0.54;70.02;100131.66;120631;1148;102308;-77
2020/12/27 08:13:08;;;;;;;28.67;16.37;;;;;;;-0.37;69.27;100137.81;120620;1148;104402;-78
2020/12/27 08:15:41;;;;;;;28.77;16.80;;;;;;;-0.24;68.52;100108.05;120573;1148;104828;-77
2020/12/27 08:18:12;;;;;;;31.70;17.20;;;;;;;-0.11;68.09;100107.33;120555;1148;104774;-78
2020/12/27 08:20:48;;;;;;;27.40;16.70;;;;;;;-0.02;67.13;100098.84;120567;1150;103793;-78
2020/12/27 08:23:17;;;;;;;31.03;16.67;;;;;;;-0.01;67.42;100083.47;120577;1148;104413;-77
2020/12/27 08:25:45;;;;;;;26.87;16.40;;;;;;;0.04;68.07;100090.36;120643;1148;104367;-78
2020/12/27 08:28:16;;;;;;;30.23;16.70;;;;;;;0.14;67.82;100081.88;120535;1148;104393;-77
2020/12/27 08:30:45;;;;;;;29.47;17.33;;;;;;;0.27;67.53;100071.72;120595;1148;104399;-78
2020/12/27 08:33:17;;;;;;;29.40;16.63;;;;;;;0.38;67.12;100076.93;120607;1148;104330;-77
2020/12/27 08:35:47;;;;;;;25.50;16.37;;;;;;;0.41;67.39;100071.81;120597;1148;104385;-78
2020/12/27 08:38:17;;;;;;;25.60;16.10;;;;;;;0.42;65.33;100075.23;120623;1148;104357;-78
2020/12/27 08:40:49;;;;;;;27.47;16.13;;;;;;;0.40;65.90;100064.11;120595;1148;104387;-78
2020/12/27 08:43:27;;;;;;;27.80;16.40;;;;;;;0.45;66.01;100073.54;120597;1148;104407;-78
2020/12/27 08:45:58;;;;;;;27.50;16.67;;;;;;;0.52;66.07;100062.45;120554;1148;104341;-78
2020/12/27 08:48:36;;;;;;;30.00;17.67;;;;;;;0.54;65.68;100065.05;120488;1148;104358;-78
2020/12/27 08:51:06;;;;;;;28.00;16.60;;;;;;;0.52;64.93;100072.71;120568;1148;104432;-78
2020/12/27 08:53:42;;;;;;;27.90;17.20;;;;;;;0.51;64.88;100078.70;120530;1148;104513;-77
2020/12/27 08:56:11;;;;;;;29.75;17.48;;;;;;;0.51;64.86;100065.87;120580;1150;104375;-78
2020/12/27 08:58:39;;;;;;;29.90;17.83;;;;;;;0.60;65.25;100089.03;120661;1148;103060;-78
2020/12/27 09:01:24;;;;;;;27.63;17.10;;;;;;;0.66;65.63;100082.20;120519;1148;104381;-78
2020/12/27 09:03:52;;;;;;;31.40;17.77;;;;;;;0.76;64.92;100066.02;120555;1148;104748;-78
2020/12/27 09:06:20;;;;;;;30.57;17.67;;;;;;;0.84;65.29;100061.75;120650;1148;104368;-78
2020/12/27 09:08:47;;;;;;;32.07;18.17;;;;;;;0.90;64.31;100054.09;120547;1147;102557;-78
2020/12/27 09:11:14;;;;;;;32.13;18.83;;;;;;;0.89;64.41;100044.65;120543;1148;104380;-78
2020/12/27 09:13:42;;;;;;;30.07;17.53;;;;;;;0.95;64.67;100047.26;120537;1150;104437;-78
2020/12/27 09:16:10;;;;;;;32.73;19.17;;;;;;;0.96;64.68;100019.87;120600;1148;105954;-78
2020/12/27 09:18:37;;;;;;;32.43;18.70;;;;;;;0.92;63.53;100034.42;120518;1148;104324;-78
2020/12/27 09:21:07;;;;;;;30.60;18.17;;;;;;;0.92;64.01;100020.72;120576;1148;104338;-78
2020/12/27 09:23:35;;;;;;;30.87;18.53;;;;;;;0.91;64.60;100007.03;120585;1148;104439;-78
2020/12/27 09:26:08;;;;;;;31.93;19.67;;;;;;;0.91;62.98;100007.03;120468;1150;104330;-78
2020/12/27 09:28:38;;;;;;;30.07;18.53;;;;;;;0.91;64.15;100004.45;120561;1148;104308;-78
2020/12/27 09:31:08;;;;;;;31.13;18.67;;;;;;;1.00;64.22;100021.59;120546;1148;104412;-77
2020/12/27 09:33:39;;;;;;;34.50;19.67;;;;;;;1.03;63.57;100001.05;120548;1149;104281;-79
2020/12/27 09:36:10;;;;;;;31.80;18.83;;;;;;;1.09;64.20;99990.81;120498;1148;104333;-77
2020/12/27 09:38:43;;;;;;;32.70;19.65;;;;;;;1.21;62.69;99980.53;120731;1148;104471;-78
2020/12/27 09:41:24;;;;;;;31.30;18.77;;;;;;;1.26;63.34;99978.84;120578;1148;104185;-78
2020/12/27 09:43:58;;;;;;;29.60;17.67;;;;;;;1.27;63.35;99989.98;120603;1148;104321;-78
2020/12/27 09:46:49;;;;;;;27.83;17.63;;;;;;;1.26;63.36;99980.53;120589;1148;104362;-78
2020/12/27 09:49:17;;;;;;;29.30;17.87;;;;;;;1.29;63.33;99968.57;120578;1146;104394;-78
2020/12/27 09:51:45;;;;;;;30.15;18.95;;;;;;;1.36;62.02;99969.42;120499;1148;104196;-79
2020/12/27 09:54:12;;;;;;;30.73;17.83;;;;;;;1.40;62.46;99953.14;120558;1150;104359;-78
2020/12/27 09:56:43;;;;;;;29.07;17.63;;;;;;;1.41;62.84;99953.14;120519;1148;104365;-77
2020/12/27 09:59:11;;;;;;;30.77;18.03;;;;;;;1.48;63.32;99985.71;120646;1148;105169;-78
2020/12/27 10:01:39;;;;;;;32.50;17.65;;;;;;;1.45;62.01;99947.17;120551;1148;104786;-77
2020/12/27 10:04:06;;;;;;;30.40;17.83;;;;;;;1.41;61.88;99962.56;120539;1148;104285;-78
2020/12/27 10:06:34;;;;;;;27.83;17.00;;;;;;;1.35;61.64;99963.42;120610;1148;104367;-77
2020/12/27 10:09:01;;;;;;;29.10;16.80;;;;;;;1.28;62.48;99935.17;120533;1148;104401;-78
2020/12/27 10:11:28;;;;;;;28.90;17.27;;;;;;;1.25;62.56;99945.42;120605;1148;104390;-77
2020/12/27 10:13:55;;;;;;;31.30;17.20;;;;;;;1.27;61.96;99956.58;120609;1148;104288;-77
2020/12/27 10:16:23;;;;;;;29.10;17.45;;;;;;;1.27;62.02;99938.60;120497;1148;104364;-77
2020/12/27 10:18:50;;;;;;;30.10;18.23;;;;;;;1.21;61.65;99927.44;120565;1148;104593;-77
2020/12/27 10:21:17;;;;;;;28.50;17.30;;;;;;;1.28;62.91;99914.63;120620;1148;104367;-77
2020/12/27 10:23:44;;;;;;;32.03;18.07;;;;;;;1.34;62.45;99923.17;120581;1151;103222;-78
2020/12/27 10:26:13;;;;;;;29.20;16.87;;;;;;;1.35;61.78;99913.75;120590;1148;104381;-78
2020/12/27 10:28:40;;;;;;;30.70;17.57;;;;;;;1.38;61.42;99917.17;120527;1148;104419;-77
2020/12/27 10:31:11;;;;;;;27.90;16.40;;;;;;;1.42;61.51;99913.73;120512;1148;104442;-78
2020/12/27 10:33:38;;;;;;;26.43;16.67;;;;;;;1.45;62.24;99908.63;120553;1148;104302;-77
2020/12/27 10:36:05;;;;;;;27.60;17.00;;;;;;;1.49;61.52;99902.61;120608;1148;104368;-77
2020/12/27 10:38:33;;;;;;;29.27;17.35;;;;;;;1.51;61.79;99903.47;120559;1148;104394;-78
2020/12/27 10:41:15;;;;;;;26.93;16.10;;;;;;;1.53;60.83;99911.17;120515;1148;104578;-78
2020/12/27 10:43:49;;;;;;;30.07;16.33;;;;;;;1.46;61.14;99878.64;120609;1148;104335;-78
2020/12/27 10:46:17;;;;;;;28.13;16.17;;;;;;;1.40;60.58;99901.75;120636;1148;105316;-78
2020/12/27 10:48:47;;;;;;;29.57;15.93;;;;;;;1.40;62.07;99881.19;120628;1148;104404;-77
2020/12/27 10:51:14;;;;;;;28.27;15.70;;;;;;;1.37;60.93;99868.35;120688;1149;104379;-78
2020/12/27 10:53:41;;;;;;;30.67;17.43;;;;;;;1.35;61.88;99858.08;120643;1148;104432;-78
2020/12/27 10:56:09;;;;;;;33.27;17.27;;;;;;;1.38;61.29;99859.78;120615;1148;104770;-77
2020/12/27 10:58:37;;;;;;;27.73;15.97;;;;;;;1.41;61.08;99845.22;120498;1148;104365;-78
2020/12/27 11:01:04;;;;;;;27.90;16.07;;;;;;;1.47;61.54;99834.09;120622;1148;105487;-77
2020/12/27 11:03:31;;;;;;;29.23;15.83;;;;;;;1.51;60.66;99820.37;120554;1148;104342;-78
2020/12/27 11:05:59;;;;;;;26.37;16.20;;;;;;;1.53;60.78;99807.52;120524;1148;104303;-77
2020/12/27 11:08:26;;;;;;;25.10;14.47;;;;;;;1.53;60.29;99836.64;120573;1148;104399;-77
2020/12/27 11:10:53;;;;;;;23.87;15.33;;;;;;;1.56;59.63;99833.20;120615;1148;104345;-78
2020/12/27 11:13:21;;;;;;;24.77;14.93;;;;;;;1.56;60.29;99821.20;120590;1148;104438;-78
2020/12/27 11:15:48;;;;;;;23.97;14.57;;;;;;;1.54;59.79;99830.64;120627;1148;104763;-78
2020/12/27 11:18:15;;;;;;;25.30;15.27;;;;;;;1.54;60.04;99820.36;120507;1148;104430;-77
2020/12/27 11:20:42;;;;;;;26.20;14.27;;;;;;;1.56;60.32;99808.36;120501;1148;104300;-77
2020/12/27 11:23:10;;;;;;;30.32;16.10;;;;;;;1.56;59.39;99805.78;120627;1148;104339;-78
2020/12/27 11:25:37;;;;;;;26.05;15.30;;;;;;;1.59;59.45;99785.20;120555;1148;102841;-78